sensor_id;sensor_type;location;lat;lon;timestamp;pressure;altitude;pressure_sealevel;temperature
66372;BMP180;53168;51.146;17.120;2022-08-16T00:02:57;99362.00;;;23.80
66372;BMP180;53168;51.146;17.120;2022-08-16T00:05:32;99362.00;;;23.80
66372;BMP180;53168;51.146;17.120;2022-08-16T00:08:21;99365.20;;;23.70
66372;BMP180;53168;51.146;17.120;2022-08-16T00:11:10;99366.40;;;23.70
66372;BMP180;53168;51.146;17.120;2022-08-16T00:13:49;99364.00;;;23.68
66372;BMP180;53168;51.146;17.120;2022-08-16T00:16:29;99365.20;;;23.64
66372;BMP180;53168;51.146;17.120;2022-08-16T00:19:35;99366.40;;;23.70
66372;BMP180;53168;51.146;17.120;2022-08-16T00:22:13;99364.60;;;23.66
66372;BMP180;53168;51.146;17.120;2022-08-16T00:24:46;99362.60;;;23.60
66372;BMP180;53168;51.146;17.120;2022-08-16T00:27:22;99367.40;;;23.60
66372;BMP180;53168;51.146;17.120;2022-08-16T00:29:56;99369.80;;;23.50
66372;BMP180;53168;51.146;17.120;2022-08-16T00:32:43;99368.00;;;23.50
66372;BMP180;53168;51.146;17.120;2022-08-16T00:35:23;99366.80;;;23.50
66372;BMP180;53168;51.146;17.120;2022-08-16T00:37:56;99367.20;;;23.50
66372;BMP180;53168;51.146;17.120;2022-08-16T00:40:40;99365.40;;;23.50
66372;BMP180;53168;51.146;17.120;2022-08-16T00:43:26;99364.80;;;23.50
66372;BMP180;53168;51.146;17.120;2022-08-16T00:46:21;99366.40;;;23.40
66372;BMP180;53168;51.146;17.120;2022-08-16T00:49:09;99368.00;;;23.30
66372;BMP180;53168;51.146;17.120;2022-08-16T00:51:51;99361.60;;;23.20
66372;BMP180;53168;51.146;17.120;2022-08-16T00:54:29;99365.40;;;23.20
66372;BMP180;53168;51.146;17.120;2022-08-16T00:57:04;99367.60;;;23.10
66372;BMP180;53168;51.146;17.120;2022-08-16T00:59:43;99373.00;;;23.10
66372;BMP180;53168;51.146;17.120;2022-08-16T01:02:30;99381.00;;;23.10
66372;BMP180;53168;51.146;17.120;2022-08-16T01:05:05;99380.80;;;23.00
66372;BMP180;53168;51.146;17.120;2022-08-16T01:07:46;99389.80;;;22.90
66372;BMP180;53168;51.146;17.120;2022-08-16T01:10:28;99393.80;;;22.80
66372;BMP180;53168;51.146;17.120;2022-08-16T01:13:11;99395.80;;;22.72
66372;BMP180;53168;51.146;17.120;2022-08-16T01:15:56;99391.60;;;22.70
66372;BMP180;53168;51.146;17.120;2022-08-16T01:18:38;99393.40;;;22.60
66372;BMP180;53168;51.146;17.120;2022-08-16T01:21:30;99389.20;;;22.60
66372;BMP180;53168;51.146;17.120;2022-08-16T01:24:22;99393.00;;;22.50
66372;BMP180;53168;51.146;17.120;2022-08-16T01:27:20;99392.40;;;22.44
66372;BMP180;53168;51.146;17.120;2022-08-16T01:30:03;99397.00;;;22.40
66372;BMP180;53168;51.146;17.120;2022-08-16T01:33:03;99394.00;;;22.30
66372;BMP180;53168;51.146;17.120;2022-08-16T01:35:53;99390.20;;;22.30
66372;BMP180;53168;51.146;17.120;2022-08-16T01:38:35;99389.20;;;22.30
66372;BMP180;53168;51.146;17.120;2022-08-16T01:41:11;99385.20;;;22.30
66372;BMP180;53168;51.146;17.120;2022-08-16T01:43:51;99387.20;;;22.20
66372;BMP180;53168;51.146;17.120;2022-08-16T01:46:34;99389.00;;;22.20
66372;BMP180;53168;51.146;17.120;2022-08-16T01:49:30;99385.20;;;22.10
66372;BMP180;53168;51.146;17.120;2022-08-16T01:52:25;99386.60;;;22.00
66372;BMP180;53168;51.146;17.120;2022-08-16T01:55:19;99386.20;;;22.00
66372;BMP180;53168;51.146;17.120;2022-08-16T01:57:54;99389.00;;;21.90
66372;BMP180;53168;51.146;17.120;2022-08-16T02:00:31;99396.20;;;21.90
66372;BMP180;53168;51.146;17.120;2022-08-16T02:03:05;99395.40;;;21.90
66372;BMP180;53168;51.146;17.120;2022-08-16T02:05:43;99391.60;;;21.88
66372;BMP180;53168;51.146;17.120;2022-08-16T02:08:22;99390.20;;;21.80
66372;BMP180;53168;51.146;17.120;2022-08-16T02:11:08;99392.60;;;21.70
66372;BMP180;53168;51.146;17.120;2022-08-16T02:13:42;99400.40;;;21.70
66372;BMP180;53168;51.146;17.120;2022-08-16T02:16:25;99398.80;;;21.70
66372;BMP180;53168;51.146;17.120;2022-08-16T02:19:04;99400.80;;;21.70
66372;BMP180;53168;51.146;17.120;2022-08-16T02:21:52;99407.60;;;21.70
66372;BMP180;53168;51.146;17.120;2022-08-16T02:24:46;99412.40;;;21.70
66372;BMP180;53168;51.146;17.120;2022-08-16T02:27:20;99412.40;;;21.66
66372;BMP180;53168;51.146;17.120;2022-08-16T02:29:53;99413.80;;;21.60
66372;BMP180;53168;51.146;17.120;2022-08-16T02:32:46;99414.60;;;21.60
66372;BMP180;53168;51.146;17.120;2022-08-16T02:35:25;99413.20;;;21.60
66372;BMP180;53168;51.146;17.120;2022-08-16T02:37:59;99412.00;;;21.60
66372;BMP180;53168;51.146;17.120;2022-08-16T02:40:40;99404.40;;;21.60
66372;BMP180;53168;51.146;17.120;2022-08-16T02:43:13;99404.80;;;21.60
66372;BMP180;53168;51.146;17.120;2022-08-16T02:45:47;99401.80;;;21.50
66372;BMP180;53168;51.146;17.120;2022-08-16T02:48:22;99402.80;;;21.46
66372;BMP180;53168;51.146;17.120;2022-08-16T02:51:04;99399.80;;;21.40
66372;BMP180;53168;51.146;17.120;2022-08-16T02:53:47;99398.20;;;21.40
66372;BMP180;53168;51.146;17.120;2022-08-16T02:56:21;99402.80;;;21.40
66372;BMP180;53168;51.146;17.120;2022-08-16T02:59:03;99400.60;;;21.40
66372;BMP180;53168;51.146;17.120;2022-08-16T03:01:46;99403.20;;;21.40
66372;BMP180;53168;51.146;17.120;2022-08-16T03:04:25;99403.60;;;21.30
66372;BMP180;53168;51.146;17.120;2022-08-16T03:07:42;99402.40;;;21.30
66372;BMP180;53168;51.146;17.120;2022-08-16T03:10:22;99408.80;;;21.30
66372;BMP180;53168;51.146;17.120;2022-08-16T03:13:05;99409.20;;;21.30
66372;BMP180;53168;51.146;17.120;2022-08-16T03:15:44;99409.00;;;21.30
66372;BMP180;53168;51.146;17.120;2022-08-16T03:18:21;99409.80;;;21.30
66372;BMP180;53168;51.146;17.120;2022-08-16T03:21:13;99416.60;;;21.30
66372;BMP180;53168;51.146;17.120;2022-08-16T03:23:50;99415.80;;;21.20
66372;BMP180;53168;51.146;17.120;2022-08-16T03:26:24;99414.00;;;21.16
66372;BMP180;53168;51.146;17.120;2022-08-16T03:28:57;99413.80;;;21.10
66372;BMP180;53168;51.146;17.120;2022-08-16T03:31:30;99420.40;;;21.10
66372;BMP180;53168;51.146;17.120;2022-08-16T03:34:11;99426.00;;;21.10
66372;BMP180;53168;51.146;17.120;2022-08-16T03:36:45;99428.40;;;21.10
66372;BMP180;53168;51.146;17.120;2022-08-16T03:39:19;99432.00;;;21.10
66372;BMP180;53168;51.146;17.120;2022-08-16T03:41:53;99437.60;;;21.10
66372;BMP180;53168;51.146;17.120;2022-08-16T03:44:32;99436.80;;;21.04
66372;BMP180;53168;51.146;17.120;2022-08-16T03:47:13;99437.80;;;21.00
66372;BMP180;53168;51.146;17.120;2022-08-16T03:49:50;99437.80;;;21.08
66372;BMP180;53168;51.146;17.120;2022-08-16T03:52:26;99439.60;;;21.06
66372;BMP180;53168;51.146;17.120;2022-08-16T03:55:04;99444.60;;;21.10
66372;BMP180;53168;51.146;17.120;2022-08-16T03:57:45;99441.20;;;21.10
66372;BMP180;53168;51.146;17.120;2022-08-16T04:00:29;99447.60;;;21.10
66372;BMP180;53168;51.146;17.120;2022-08-16T04:03:12;99451.80;;;21.10
66372;BMP180;53168;51.146;17.120;2022-08-16T04:05:50;99457.80;;;21.10
66372;BMP180;53168;51.146;17.120;2022-08-16T04:08:48;99458.60;;;21.12
66372;BMP180;53168;51.146;17.120;2022-08-16T04:11:22;99460.80;;;21.20
66372;BMP180;53168;51.146;17.120;2022-08-16T04:13:55;99465.20;;;21.20
66372;BMP180;53168;51.146;17.120;2022-08-16T04:16:42;99464.80;;;21.28
66372;BMP180;53168;51.146;17.120;2022-08-16T04:19:30;99465.20;;;21.30
66372;BMP180;53168;51.146;17.120;2022-08-16T04:22:07;99469.80;;;21.30
66372;BMP180;53168;51.146;17.120;2022-08-16T04:24:50;99475.40;;;21.30
66372;BMP180;53168;51.146;17.120;2022-08-16T04:43:56;99499.60;;;21.30
66372;BMP180;53168;51.146;17.120;2022-08-16T04:46:30;99499.80;;;21.22
66372;BMP180;53168;51.146;17.120;2022-08-16T04:49:25;99500.80;;;21.20
66372;BMP180;53168;51.146;17.120;2022-08-16T04:52:15;99499.20;;;21.20
66372;BMP180;53168;51.146;17.120;2022-08-16T04:55:14;99496.40;;;21.20
66372;BMP180;53168;51.146;17.120;2022-08-16T04:57:50;99497.00;;;21.20
66372;BMP180;53168;51.146;17.120;2022-08-16T05:00:30;99501.60;;;21.20
66372;BMP180;53168;51.146;17.120;2022-08-16T05:03:14;99499.80;;;21.20
66372;BMP180;53168;51.146;17.120;2022-08-16T05:05:52;99498.60;;;21.20
66372;BMP180;53168;51.146;17.120;2022-08-16T05:08:35;99500.00;;;21.20
66372;BMP180;53168;51.146;17.120;2022-08-16T05:11:22;99502.00;;;21.30
66372;BMP180;53168;51.146;17.120;2022-08-16T05:14:03;99505.40;;;21.40
66372;BMP180;53168;51.146;17.120;2022-08-16T05:16:39;99506.80;;;21.50
66372;BMP180;53168;51.146;17.120;2022-08-16T05:19:15;99504.40;;;21.50
66372;BMP180;53168;51.146;17.120;2022-08-16T05:22:09;99506.00;;;21.60
66372;BMP180;53168;51.146;17.120;2022-08-16T05:24:49;99508.40;;;21.64
66372;BMP180;53168;51.146;17.120;2022-08-16T05:27:26;99504.60;;;21.70
66372;BMP180;53168;51.146;17.120;2022-08-16T05:30:08;99506.60;;;21.80
66372;BMP180;53168;51.146;17.120;2022-08-16T05:33:05;99512.40;;;21.90
66372;BMP180;53168;51.146;17.120;2022-08-16T05:35:49;99515.60;;;22.00
66372;BMP180;53168;51.146;17.120;2022-08-16T05:38:56;99514.60;;;22.10
66372;BMP180;53168;51.146;17.120;2022-08-16T05:41:31;99522.00;;;22.20
66372;BMP180;53168;51.146;17.120;2022-08-16T05:44:19;99522.40;;;22.18
66372;BMP180;53168;51.146;17.120;2022-08-16T05:46:59;99522.60;;;22.20
66372;BMP180;53168;51.146;17.120;2022-08-16T05:49:34;99528.20;;;22.22
66372;BMP180;53168;51.146;17.120;2022-08-16T05:52:13;99534.00;;;22.30
66372;BMP180;53168;51.146;17.120;2022-08-16T05:54:51;99531.00;;;22.30
66372;BMP180;53168;51.146;17.120;2022-08-16T05:57:34;99532.40;;;22.40
66372;BMP180;53168;51.146;17.120;2022-08-16T06:00:11;99527.80;;;22.40
66372;BMP180;53168;51.146;17.120;2022-08-16T06:02:55;99528.20;;;22.50
66372;BMP180;53168;51.146;17.120;2022-08-16T06:05:57;99526.20;;;22.60
66372;BMP180;53168;51.146;17.120;2022-08-16T06:08:31;99532.80;;;22.80
66372;BMP180;53168;51.146;17.120;2022-08-16T06:11:18;99534.20;;;22.90
66372;BMP180;53168;51.146;17.120;2022-08-16T06:13:59;99534.80;;;23.00
66372;BMP180;53168;51.146;17.120;2022-08-16T06:16:40;99529.40;;;23.10
66372;BMP180;53168;51.146;17.120;2022-08-16T06:19:13;99530.60;;;23.14
66372;BMP180;53168;51.146;17.120;2022-08-16T06:21:55;99535.40;;;23.22
66372;BMP180;53168;51.146;17.120;2022-08-16T06:24:28;99539.20;;;23.32
66372;BMP180;53168;51.146;17.120;2022-08-16T06:27:22;99544.80;;;23.50
66372;BMP180;53168;51.146;17.120;2022-08-16T06:29:56;99543.40;;;23.60
66372;BMP180;53168;51.146;17.120;2022-08-16T06:32:29;99541.40;;;23.66
66372;BMP180;53168;51.146;17.120;2022-08-16T06:35:14;99540.80;;;23.70
66372;BMP180;53168;51.146;17.120;2022-08-16T06:37:49;99546.60;;;23.90
66372;BMP180;53168;51.146;17.120;2022-08-16T06:40:24;99551.00;;;24.00
66372;BMP180;53168;51.146;17.120;2022-08-16T06:43:05;99558.00;;;24.12
66372;BMP180;53168;51.146;17.120;2022-08-16T06:45:44;99553.60;;;24.26
66372;BMP180;53168;51.146;17.120;2022-08-16T06:48:25;99551.20;;;24.38
66372;BMP180;53168;51.146;17.120;2022-08-16T06:51:06;99563.40;;;24.40
66372;BMP180;53168;51.146;17.120;2022-08-16T06:53:40;99558.40;;;24.50
66372;BMP180;53168;51.146;17.120;2022-08-16T06:56:13;99556.20;;;24.60
66372;BMP180;53168;51.146;17.120;2022-08-16T06:59:14;99559.40;;;24.70
66372;BMP180;53168;51.146;17.120;2022-08-16T07:01:52;99564.40;;;24.80
66372;BMP180;53168;51.146;17.120;2022-08-16T07:04:32;99564.20;;;24.80
66372;BMP180;53168;51.146;17.120;2022-08-16T07:07:21;99565.80;;;24.90
66372;BMP180;53168;51.146;17.120;2022-08-16T07:10:04;99567.00;;;25.00
66372;BMP180;53168;51.146;17.120;2022-08-16T07:12:42;99576.20;;;25.10
66372;BMP180;53168;51.146;17.120;2022-08-16T07:15:20;99571.00;;;25.10
66372;BMP180;53168;51.146;17.120;2022-08-16T07:17:56;99571.40;;;25.14
66372;BMP180;53168;51.146;17.120;2022-08-16T07:20:34;99570.20;;;25.20
66372;BMP180;53168;51.146;17.120;2022-08-16T07:23:20;99571.00;;;25.30
66372;BMP180;53168;51.146;17.120;2022-08-16T07:26:19;99568.60;;;25.40
66372;BMP180;53168;51.146;17.120;2022-08-16T07:29:09;99569.00;;;25.50
66372;BMP180;53168;51.146;17.120;2022-08-16T07:31:44;99565.20;;;25.50
66372;BMP180;53168;51.146;17.120;2022-08-16T07:34:21;99572.60;;;25.60
66372;BMP180;53168;51.146;17.120;2022-08-16T07:37:10;99573.40;;;25.60
66372;BMP180;53168;51.146;17.120;2022-08-16T07:40:00;99569.60;;;25.70
66372;BMP180;53168;51.146;17.120;2022-08-16T07:42:44;99568.20;;;25.80
66372;BMP180;53168;51.146;17.120;2022-08-16T07:45:18;99568.40;;;25.80
66372;BMP180;53168;51.146;17.120;2022-08-16T07:47:54;99572.80;;;25.80
66372;BMP180;53168;51.146;17.120;2022-08-16T07:50:30;99578.80;;;25.80
66372;BMP180;53168;51.146;17.120;2022-08-16T07:53:31;99578.20;;;25.90
66372;BMP180;53168;51.146;17.120;2022-08-16T07:56:15;99577.00;;;26.00
66372;BMP180;53168;51.146;17.120;2022-08-16T07:58:51;99579.00;;;26.10
66372;BMP180;53168;51.146;17.120;2022-08-16T08:01:29;99579.00;;;26.20
66372;BMP180;53168;51.146;17.120;2022-08-16T08:04:04;99582.20;;;26.30
66372;BMP180;53168;51.146;17.120;2022-08-16T08:06:45;99586.20;;;26.30
66372;BMP180;53168;51.146;17.120;2022-08-16T08:09:22;99585.00;;;26.32
66372;BMP180;53168;51.146;17.120;2022-08-16T08:11:57;99580.00;;;26.40
66372;BMP180;53168;51.146;17.120;2022-08-16T08:14:42;99578.40;;;26.50
66372;BMP180;53168;51.146;17.120;2022-08-16T08:17:17;99587.80;;;26.60
66372;BMP180;53168;51.146;17.120;2022-08-16T08:19:51;99588.80;;;26.70
66372;BMP180;53168;51.146;17.120;2022-08-16T08:22:26;99596.20;;;26.70
66372;BMP180;53168;51.146;17.120;2022-08-16T08:25:03;99594.00;;;26.80
66372;BMP180;53168;51.146;17.120;2022-08-16T08:27:37;99597.00;;;26.90
66372;BMP180;53168;51.146;17.120;2022-08-16T08:30:15;99598.40;;;26.98
66372;BMP180;53168;51.146;17.120;2022-08-16T08:33:09;99606.00;;;27.00
66372;BMP180;53168;51.146;17.120;2022-08-16T08:35:47;99605.60;;;27.00
66372;BMP180;53168;51.146;17.120;2022-08-16T08:38:22;99607.40;;;27.00
66372;BMP180;53168;51.146;17.120;2022-08-16T08:41:17;99605.80;;;27.00
66372;BMP180;53168;51.146;17.120;2022-08-16T08:43:59;99612.00;;;27.00
66372;BMP180;53168;51.146;17.120;2022-08-16T08:46:52;99614.20;;;27.10
66372;BMP180;53168;51.146;17.120;2022-08-16T08:49:34;99617.20;;;27.10
66372;BMP180;53168;51.146;17.120;2022-08-16T08:52:27;99616.40;;;27.20
66372;BMP180;53168;51.146;17.120;2022-08-16T08:55:14;99621.20;;;27.26
66372;BMP180;53168;51.146;17.120;2022-08-16T08:57:48;99624.20;;;27.30
66372;BMP180;53168;51.146;17.120;2022-08-16T09:00:29;99622.00;;;27.40
66372;BMP180;53168;51.146;17.120;2022-08-16T09:03:19;99616.20;;;27.50
66372;BMP180;53168;51.146;17.120;2022-08-16T09:05:53;99614.40;;;27.60
66372;BMP180;53168;51.146;17.120;2022-08-16T09:08:27;99615.00;;;27.70
66372;BMP180;53168;51.146;17.120;2022-08-16T09:11:10;99616.20;;;27.80
66372;BMP180;53168;51.146;17.120;2022-08-16T09:13:49;99617.40;;;27.88
66372;BMP180;53168;51.146;17.120;2022-08-16T09:16:24;99619.00;;;28.00
66372;BMP180;53168;51.146;17.120;2022-08-16T09:19:18;99622.40;;;28.10
66372;BMP180;53168;51.146;17.120;2022-08-16T09:22:05;99626.00;;;28.20
66372;BMP180;53168;51.146;17.120;2022-08-16T09:24:53;99622.40;;;28.20
66372;BMP180;53168;51.146;17.120;2022-08-16T09:27:42;99622.60;;;28.30
66372;BMP180;53168;51.146;17.120;2022-08-16T09:30:30;99626.20;;;28.32
66372;BMP180;53168;51.146;17.120;2022-08-16T09:33:16;99619.60;;;28.40
66372;BMP180;53168;51.146;17.120;2022-08-16T09:35:52;99622.40;;;28.40
66372;BMP180;53168;51.146;17.120;2022-08-16T09:38:26;99627.60;;;28.40
66372;BMP180;53168;51.146;17.120;2022-08-16T09:41:07;99625.60;;;28.50
66372;BMP180;53168;51.146;17.120;2022-08-16T09:43:49;99626.20;;;28.60
66372;BMP180;53168;51.146;17.120;2022-08-16T09:46:33;99624.20;;;28.70
66372;BMP180;53168;51.146;17.120;2022-08-16T09:49:21;99620.00;;;28.78
66372;BMP180;53168;51.146;17.120;2022-08-16T09:51:54;99617.40;;;28.80
66372;BMP180;53168;51.146;17.120;2022-08-16T09:54:29;99625.60;;;28.90
66372;BMP180;53168;51.146;17.120;2022-08-16T09:57:04;99623.40;;;28.96
66372;BMP180;53168;51.146;17.120;2022-08-16T09:59:43;99623.40;;;29.00
66372;BMP180;53168;51.146;17.120;2022-08-16T10:02:16;99630.80;;;29.10
66372;BMP180;53168;51.146;17.120;2022-08-16T10:04:59;99626.60;;;29.20
66372;BMP180;53168;51.146;17.120;2022-08-16T10:07:33;99621.80;;;29.30
66372;BMP180;53168;51.146;17.120;2022-08-16T16:38:21;99631.40;;;44.64
66372;BMP180;53168;51.146;17.120;2022-08-16T16:40:59;99636.00;;;43.94
66372;BMP180;53168;51.146;17.120;2022-08-16T16:43:43;99640.20;;;42.76
66372;BMP180;53168;51.146;17.120;2022-08-16T16:46:19;99634.80;;;41.54
66372;BMP180;53168;51.146;17.120;2022-08-16T16:49:14;99635.20;;;40.38
66372;BMP180;53168;51.146;17.120;2022-08-16T16:51:47;99638.80;;;39.46
66372;BMP180;53168;51.146;17.120;2022-08-16T16:54:21;99635.80;;;38.64
66372;BMP180;53168;51.146;17.120;2022-08-16T16:57:00;99636.60;;;37.82
66372;BMP180;53168;51.146;17.120;2022-08-16T16:59:33;99635.80;;;37.20
66372;BMP180;53168;51.146;17.120;2022-08-16T17:02:07;99634.40;;;36.60
66372;BMP180;53168;51.146;17.120;2022-08-16T17:05:04;99640.00;;;36.00
66372;BMP180;53168;51.146;17.120;2022-08-16T17:07:39;99635.80;;;35.50
66372;BMP180;53168;51.146;17.120;2022-08-16T17:10:13;99641.60;;;35.10
66372;BMP180;53168;51.146;17.120;2022-08-16T17:13:06;99640.80;;;34.80
66372;BMP180;53168;51.146;17.120;2022-08-16T17:15:40;99646.40;;;34.50
66372;BMP180;53168;51.146;17.120;2022-08-16T17:18:14;99647.40;;;34.22
66372;BMP180;53168;51.146;17.120;2022-08-16T17:21:08;99652.40;;;33.94
66372;BMP180;53168;51.146;17.120;2022-08-16T17:23:41;99652.00;;;33.70
66372;BMP180;53168;51.146;17.120;2022-08-16T17:26:31;99651.80;;;33.40
66372;BMP180;53168;51.146;17.120;2022-08-16T17:29:08;99653.60;;;33.20
66372;BMP180;53168;51.146;17.120;2022-08-16T17:31:42;99652.00;;;33.00
66372;BMP180;53168;51.146;17.120;2022-08-16T17:34:17;99655.40;;;32.72
66372;BMP180;53168;51.146;17.120;2022-08-16T17:37:11;99655.60;;;32.50
66372;BMP180;53168;51.146;17.120;2022-08-16T17:39:47;99660.20;;;32.30
66372;BMP180;53168;51.146;17.120;2022-08-16T17:42:40;99656.40;;;32.10
66372;BMP180;53168;51.146;17.120;2022-08-16T17:45:19;99658.00;;;31.96
66372;BMP180;53168;51.146;17.120;2022-08-16T17:47:54;99655.60;;;31.80
66372;BMP180;53168;51.146;17.120;2022-08-16T17:50:27;99653.60;;;31.70
66372;BMP180;53168;51.146;17.120;2022-08-16T17:53:04;99659.20;;;31.50
66372;BMP180;53168;51.146;17.120;2022-08-16T17:55:41;99664.80;;;31.40
66372;BMP180;53168;51.146;17.120;2022-08-16T17:58:14;99658.80;;;31.28
66372;BMP180;53168;51.146;17.120;2022-08-16T18:00:57;99661.80;;;31.10
66372;BMP180;53168;51.146;17.120;2022-08-16T18:03:35;99660.20;;;30.92
66372;BMP180;53168;51.146;17.120;2022-08-16T18:06:30;99662.40;;;30.80
66372;BMP180;53168;51.146;17.120;2022-08-16T18:09:03;99662.20;;;30.60
66372;BMP180;53168;51.146;17.120;2022-08-16T18:11:37;99659.80;;;30.40
66372;BMP180;53168;51.146;17.120;2022-08-16T18:14:13;99665.20;;;30.30
66372;BMP180;53168;51.146;17.120;2022-08-16T18:16:48;99667.00;;;30.10
66372;BMP180;53168;51.146;17.120;2022-08-16T18:19:22;99665.00;;;30.00
66372;BMP180;53168;51.146;17.120;2022-08-16T18:21:57;99667.40;;;29.80
66372;BMP180;53168;51.146;17.120;2022-08-16T18:24:49;99674.20;;;29.70
66372;BMP180;53168;51.146;17.120;2022-08-16T18:27:23;99674.40;;;29.50
66372;BMP180;53168;51.146;17.120;2022-08-16T18:29:58;99675.80;;;29.40
66372;BMP180;53168;51.146;17.120;2022-08-16T18:32:31;99678.60;;;29.30
66372;BMP180;53168;51.146;17.120;2022-08-16T18:35:06;99682.20;;;29.10
66372;BMP180;53168;51.146;17.120;2022-08-16T18:37:39;99678.40;;;29.00
66372;BMP180;53168;51.146;17.120;2022-08-16T18:40:15;99677.40;;;28.90
66372;BMP180;53168;51.146;17.120;2022-08-16T18:42:58;99677.60;;;28.80
66372;BMP180;53168;51.146;17.120;2022-08-16T18:45:37;99678.20;;;28.70
66372;BMP180;53168;51.146;17.120;2022-08-16T18:48:14;99684.00;;;28.60
66372;BMP180;53168;51.146;17.120;2022-08-16T18:50:51;99679.80;;;28.50
66372;BMP180;53168;51.146;17.120;2022-08-16T18:53:36;99678.60;;;28.40
66372;BMP180;53168;51.146;17.120;2022-08-16T18:56:09;99682.00;;;28.28
66372;BMP180;53168;51.146;17.120;2022-08-16T18:58:43;99684.00;;;28.20
66372;BMP180;53168;51.146;17.120;2022-08-16T19:01:16;99686.60;;;28.10
66372;BMP180;53168;51.146;17.120;2022-08-16T19:03:50;99684.60;;;28.00
66372;BMP180;53168;51.146;17.120;2022-08-16T19:06:23;99687.80;;;27.90
66372;BMP180;53168;51.146;17.120;2022-08-16T19:09:00;99684.20;;;27.80
66372;BMP180;53168;51.146;17.120;2022-08-16T19:11:34;99683.40;;;27.76
66372;BMP180;53168;51.146;17.120;2022-08-16T19:14:09;99684.60;;;27.70
66372;BMP180;53168;51.146;17.120;2022-08-16T19:16:42;99690.20;;;27.60
66372;BMP180;53168;51.146;17.120;2022-08-16T19:19:15;99694.60;;;27.50
66372;BMP180;53168;51.146;17.120;2022-08-16T19:21:49;99693.80;;;27.46
66372;BMP180;53168;51.146;17.120;2022-08-16T19:24:22;99694.00;;;27.40
66372;BMP180;53168;51.146;17.120;2022-08-16T19:27:00;99692.00;;;27.30
66372;BMP180;53168;51.146;17.120;2022-08-16T19:29:34;99698.40;;;27.20
66372;BMP180;53168;51.146;17.120;2022-08-16T19:32:19;99698.00;;;27.20
66372;BMP180;53168;51.146;17.120;2022-08-16T19:34:53;99701.60;;;27.10
66372;BMP180;53168;51.146;17.120;2022-08-16T19:37:27;99704.00;;;27.00
66372;BMP180;53168;51.146;17.120;2022-08-16T19:40:00;99703.60;;;27.00
66372;BMP180;53168;51.146;17.120;2022-08-16T19:42:35;99706.80;;;26.90
66372;BMP180;53168;51.146;17.120;2022-08-16T19:45:13;99711.20;;;26.80
66372;BMP180;53168;51.146;17.120;2022-08-16T19:47:50;99707.40;;;26.80
66372;BMP180;53168;51.146;17.120;2022-08-16T19:50:27;99702.00;;;26.70
66372;BMP180;53168;51.146;17.120;2022-08-16T19:53:10;99701.80;;;26.60
66372;BMP180;53168;51.146;17.120;2022-08-16T19:55:50;99701.60;;;26.60
66372;BMP180;53168;51.146;17.120;2022-08-16T19:58:23;99702.60;;;26.50
66372;BMP180;53168;51.146;17.120;2022-08-16T20:00:56;99705.80;;;26.40
66372;BMP180;53168;51.146;17.120;2022-08-16T20:03:31;99708.20;;;26.40
66372;BMP180;53168;51.146;17.120;2022-08-16T20:06:05;99704.40;;;26.30
66372;BMP180;53168;51.146;17.120;2022-08-16T20:08:41;99706.60;;;26.20
66372;BMP180;53168;51.146;17.120;2022-08-16T20:11:15;99707.40;;;26.20
66372;BMP180;53168;51.146;17.120;2022-08-16T20:13:48;99706.60;;;26.10
66372;BMP180;53168;51.146;17.120;2022-08-16T20:16:22;99709.20;;;26.06
66372;BMP180;53168;51.146;17.120;2022-08-16T20:18:55;99712.60;;;26.00
66372;BMP180;53168;51.146;17.120;2022-08-16T20:21:29;99714.40;;;25.90
66372;BMP180;53168;51.146;17.120;2022-08-16T20:24:02;99714.20;;;25.90
66372;BMP180;53168;51.146;17.120;2022-08-16T20:26:56;99721.20;;;25.88
66372;BMP180;53168;51.146;17.120;2022-08-16T20:29:29;99723.40;;;25.82
66372;BMP180;53168;51.146;17.120;2022-08-16T20:32:04;99727.40;;;25.82
66372;BMP180;53168;51.146;17.120;2022-08-16T20:34:38;99726.80;;;25.80
66372;BMP180;53168;51.146;17.120;2022-08-16T20:37:12;99723.60;;;25.80
66372;BMP180;53168;51.146;17.120;2022-08-16T20:39:50;99725.20;;;25.70
66372;BMP180;53168;51.146;17.120;2022-08-16T20:42:43;99718.20;;;25.70
66372;BMP180;53168;51.146;17.120;2022-08-16T20:45:18;99720.80;;;25.60
66372;BMP180;53168;51.146;17.120;2022-08-16T20:47:58;99716.40;;;25.60
66372;BMP180;53168;51.146;17.120;2022-08-16T20:50:32;99718.40;;;25.50
66372;BMP180;53168;51.146;17.120;2022-08-16T20:53:06;99716.40;;;25.50
66372;BMP180;53168;51.146;17.120;2022-08-16T20:55:40;99716.40;;;25.40
66372;BMP180;53168;51.146;17.120;2022-08-16T20:58:15;99714.60;;;25.40
66372;BMP180;53168;51.146;17.120;2022-08-16T21:00:49;99716.00;;;25.30
66372;BMP180;53168;51.146;17.120;2022-08-16T21:03:22;99713.80;;;25.30
66372;BMP180;53168;51.146;17.120;2022-08-16T21:05:58;99711.80;;;25.30
66372;BMP180;53168;51.146;17.120;2022-08-16T21:08:33;99711.60;;;25.24
66372;BMP180;53168;51.146;17.120;2022-08-16T21:11:24;99712.40;;;25.20
66372;BMP180;53168;51.146;17.120;2022-08-16T21:13:59;99711.00;;;25.20
66372;BMP180;53168;51.146;17.120;2022-08-16T21:16:32;99713.60;;;25.10
66372;BMP180;53168;51.146;17.120;2022-08-16T21:19:06;99712.80;;;25.10
66372;BMP180;53168;51.146;17.120;2022-08-16T21:21:39;99706.80;;;25.00
66372;BMP180;53168;51.146;17.120;2022-08-16T21:24:13;99708.20;;;24.90
66372;BMP180;53168;51.146;17.120;2022-08-16T21:26:47;99710.60;;;24.90
66372;BMP180;53168;51.146;17.120;2022-08-16T21:29:27;99713.20;;;24.80
66372;BMP180;53168;51.146;17.120;2022-08-16T21:32:19;99717.40;;;24.76
66372;BMP180;53168;51.146;17.120;2022-08-16T21:35:11;99715.80;;;24.70
66372;BMP180;53168;51.146;17.120;2022-08-16T21:37:45;99717.40;;;24.70
66372;BMP180;53168;51.146;17.120;2022-08-16T21:40:39;99716.40;;;24.70
66372;BMP180;53168;51.146;17.120;2022-08-16T21:43:16;99720.60;;;24.70
66372;BMP180;53168;51.146;17.120;2022-08-16T21:45:53;99723.00;;;24.60
66372;BMP180;53168;51.146;17.120;2022-08-16T21:48:28;99727.00;;;24.60
66372;BMP180;53168;51.146;17.120;2022-08-16T21:51:11;99726.60;;;24.50
66372;BMP180;53168;51.146;17.120;2022-08-16T21:53:45;99728.80;;;24.40
66372;BMP180;53168;51.146;17.120;2022-08-16T21:56:19;99727.20;;;24.40